X  Schließen METAR Luftfahrt Wetterdaten     EDTY Adolf Würth Airport
Temperatur
23°C Temperatur
14°C Taupunkt
57% Feuchtigkeit



Wind
14 KM/S
9 MPS
4 M/S
8 KTS



290°
WNW
Aktuelle Wetterlage

Meistens bewölkt Meistens bewölkt
Luftdruck 1018.96 (hPa) - 30.09 (inHg)
Sichtweite 6 (Meile) - 9.7 (Km)
Flughafen
Flughafen Code EDTY

Position : Adolf Würth Airport
Entfernung: 59 (Km)

Metar:
EDTY 231350Z 29008KT 250V310 9999 BKN044 23/14 Q1019

Zeit: 23-07-2024 15:50 CEST